createdAt,value
2018-07-28T00:00:10.503Z,75.88
2018-07-28T00:02:39.757Z,75.08
2018-07-28T00:05:09.645Z,76.30
2018-07-28T00:07:38.946Z,76.85
2018-07-28T00:10:11.824Z,76.29
2018-07-28T00:12:40.967Z,76.11
2018-07-28T00:15:11.416Z,76.39
2018-07-28T00:17:41.286Z,75.44
2018-07-28T00:20:11.731Z,76.08
2018-07-28T00:22:40.845Z,75.64
2018-07-28T00:25:11.747Z,76.36
2018-07-28T00:27:41.091Z,76.93
2018-07-28T00:30:12.263Z,77.33
2018-07-28T00:32:41.463Z,77.36
2018-07-28T00:35:10.498Z,76.84
2018-07-28T00:37:39.640Z,76.95
2018-07-28T00:40:09.164Z,76.41
2018-07-28T00:42:38.282Z,76.34
2018-07-28T00:45:07.834Z,77.19
2018-07-28T00:47:36.998Z,77.71
2018-07-28T00:50:07.085Z,77.10
2018-07-28T00:52:36.208Z,77.12
2018-07-28T00:55:05.546Z,78.19
2018-07-28T00:57:34.750Z,77.29
2018-07-28T01:00:03.995Z,78.12
2018-07-28T01:02:32.993Z,79.40
2018-07-28T01:05:02.169Z,77.59
2018-07-28T01:07:30.955Z,76.77
2018-07-28T01:10:00.108Z,77.86
2018-07-28T01:15:05.303Z,78.18
2018-07-28T01:17:34.442Z,78.86
2018-07-28T01:20:03.284Z,78.50
2018-07-28T01:22:32.417Z,77.06
2018-07-28T01:25:01.680Z,77.48
2018-07-28T01:27:30.533Z,77.44
2018-07-28T01:29:59.392Z,78.43
2018-07-28T01:32:28.382Z,79.29
2018-07-28T01:34:57.510Z,78.16
2018-07-28T01:37:26.677Z,77.95
2018-07-28T01:39:55.990Z,79.06
2018-07-28T01:42:25.099Z,78.68
2018-07-28T01:44:54.115Z,80.07
2018-07-28T01:47:23.035Z,78.74
2018-07-28T01:49:52.324Z,78.12
2018-07-28T01:52:21.578Z,77.64
2018-07-28T01:54:50.832Z,77.74
2018-07-28T01:57:20.018Z,78.82
2018-07-28T01:59:48.926Z,78.93
2018-07-28T02:02:18.112Z,78.49
2018-07-28T02:04:47.462Z,78.65
2018-07-28T02:07:16.549Z,78.64
2018-07-28T02:09:45.741Z,78.92
2018-07-28T02:12:14.738Z,79.31
2018-07-28T02:14:43.978Z,79.01
2018-07-28T02:17:12.977Z,78.36
2018-07-28T02:19:42.068Z,79.13
2018-07-28T02:22:11.056Z,79.11
2018-07-28T02:24:40.150Z,79.06
2018-07-28T02:27:09.211Z,78.73
2018-07-28T02:29:38.079Z,78.09
2018-07-28T02:32:07.325Z,78.89
2018-07-28T02:34:36.175Z,78.78
2018-07-28T02:37:05.252Z,79.08
2018-07-28T02:39:34.346Z,79.10
2018-07-28T02:42:03.619Z,78.99
2018-07-28T02:44:32.801Z,77.91
2018-07-28T02:47:02.057Z,77.89
2018-07-28T02:49:31.213Z,78.84
2018-07-28T02:52:00.411Z,79.35
2018-07-28T02:54:29.299Z,79.41
2018-07-28T02:56:58.275Z,80.02
2018-07-28T02:59:27.393Z,79.44
2018-07-28T03:01:56.187Z,79.09
2018-07-28T03:04:25.286Z,79.69
2018-07-28T03:06:54.434Z,80.20
2018-07-28T03:09:23.678Z,79.12
2018-07-28T03:11:52.641Z,78.30
2018-07-28T03:14:21.586Z,78.94
2018-07-28T03:16:50.780Z,79.03
2018-07-28T03:19:19.991Z,78.50
2018-07-28T03:21:49.071Z,78.62
2018-07-28T03:24:18.343Z,79.66
2018-07-28T03:26:47.607Z,79.17
2018-07-28T03:29:16.687Z,77.57
2018-07-28T03:31:45.600Z,77.84
2018-07-28T03:34:14.521Z,78.58
2018-07-28T03:36:43.466Z,78.97
2018-07-28T03:39:12.865Z,78.90
2018-07-28T03:41:42.165Z,77.92
2018-07-28T03:44:10.940Z,78.78
2018-07-28T03:46:40.191Z,78.79
2018-07-28T03:49:09.397Z,78.50
2018-07-28T03:51:38.353Z,77.57
2018-07-28T03:54:07.391Z,77.01
2018-07-28T03:56:36.368Z,78.03
2018-07-28T03:59:05.510Z,78.63
2018-07-28T04:01:34.755Z,78.21
2018-07-28T04:04:03.567Z,77.56
2018-07-28T04:06:32.674Z,76.96
2018-07-28T04:09:01.659Z,77.15
2018-07-28T04:11:30.622Z,77.26
2018-07-28T04:13:59.687Z,77.47
2018-07-28T04:16:28.926Z,78.09
2018-07-28T04:18:58.175Z,77.99
2018-07-28T04:21:27.438Z,78.22
2018-07-28T04:23:56.475Z,78.58
2018-07-28T04:26:25.525Z,78.13
2018-07-28T04:28:54.557Z,79.08
2018-07-28T04:31:23.750Z,77.57
2018-07-28T04:33:52.740Z,77.48
2018-07-28T04:36:21.979Z,77.07
2018-07-28T04:38:51.036Z,75.99
2018-07-28T04:41:20.168Z,76.78
2018-07-28T04:43:49.215Z,75.41
2018-07-28T04:46:18.470Z,74.54
2018-07-28T04:48:47.638Z,74.82
2018-07-28T04:51:16.688Z,73.62
2018-07-28T04:53:45.439Z,73.73
2018-07-28T04:56:14.665Z,73.11
2018-07-28T04:58:43.493Z,72.42
2018-07-28T05:01:12.194Z,71.95
2018-07-28T05:03:41.255Z,70.45
2018-07-28T05:06:10.346Z,71.08
2018-07-28T05:08:39.129Z,71.62
2018-07-28T05:11:08.330Z,72.06
2018-07-28T05:13:37.607Z,70.70
2018-07-28T05:16:06.350Z,69.71
2018-07-28T05:18:35.168Z,69.16
2018-07-28T05:21:04.156Z,70.05
2018-07-28T05:23:33.063Z,69.55
2018-07-28T05:26:02.223Z,68.90
2018-07-28T05:28:31.425Z,69.51
2018-07-28T05:31:00.802Z,69.99
2018-07-28T05:33:29.894Z,68.52
2018-07-28T05:35:58.970Z,67.58
2018-07-28T05:38:28.221Z,67.57
2018-07-28T05:40:57.467Z,67.85
2018-07-28T05:43:26.663Z,66.56
2018-07-28T05:45:55.402Z,66.65
2018-07-28T05:48:24.690Z,66.25
2018-07-28T05:50:54.043Z,66.62
2018-07-28T05:53:22.990Z,65.97
2018-07-28T05:55:52.139Z,66.38
2018-07-28T05:58:21.208Z,64.79
2018-07-28T06:00:50.336Z,65.49
2018-07-28T06:03:19.438Z,65.65
2018-07-28T06:05:48.862Z,66.01
2018-07-28T06:08:17.879Z,67.55
2018-07-28T06:10:46.858Z,66.87
2018-07-28T06:13:16.055Z,67.79
2018-07-28T06:15:45.194Z,67.08
2018-07-28T06:18:14.302Z,67.58
2018-07-28T06:20:43.155Z,67.37
2018-07-28T06:23:11.987Z,65.82
2018-07-28T06:25:40.898Z,65.85
2018-07-28T06:28:10.143Z,65.83
2018-07-28T06:30:39.391Z,66.63
2018-07-28T06:33:08.599Z,66.22
2018-07-28T06:35:37.810Z,65.59
2018-07-28T06:38:07.095Z,64.64
2018-07-28T06:40:36.279Z,64.83
2018-07-28T06:43:05.122Z,64.71
2018-07-28T06:45:34.133Z,64.43
2018-07-28T06:48:03.440Z,62.48
2018-07-28T06:50:32.814Z,62.92
2018-07-28T06:53:02.135Z,63.22
2018-07-28T06:55:31.256Z,62.03
2018-07-28T06:58:00.423Z,62.00
2018-07-28T07:00:29.639Z,61.66
2018-07-28T07:02:58.899Z,60.84
2018-07-28T07:05:28.339Z,59.18
2018-07-28T07:07:57.547Z,60.22
2018-07-28T07:10:26.515Z,59.67
2018-07-28T07:12:55.579Z,58.93
2018-07-28T07:15:24.529Z,58.79
2018-07-28T07:17:53.685Z,58.00
2018-07-28T07:20:22.628Z,57.69
2018-07-28T07:22:51.510Z,56.95
2018-07-28T07:25:20.650Z,56.60
2018-07-28T07:27:49.894Z,57.82
2018-07-28T07:30:19.027Z,58.22
2018-07-28T07:32:47.972Z,57.61
2018-07-28T07:35:17.199Z,57.96
2018-07-28T07:37:46.329Z,57.98
2018-07-28T07:40:15.430Z,58.10
2018-07-28T07:42:44.309Z,56.81
2018-07-28T07:45:13.312Z,57.17
2018-07-28T07:47:42.451Z,56.51
2018-07-28T07:50:11.603Z,55.93
2018-07-28T07:52:40.826Z,55.68
2018-07-28T07:55:09.955Z,56.02
2018-07-28T07:57:38.754Z,54.98
2018-07-28T08:00:08.449Z,55.22
2018-07-28T08:02:37.423Z,55.22
2018-07-28T08:05:06.570Z,55.15
2018-07-28T08:07:35.808Z,56.76
2018-07-28T08:10:05.375Z,55.02
2018-07-28T08:12:34.661Z,54.40
2018-07-28T08:15:03.814Z,55.43
2018-07-28T08:17:32.775Z,54.85
2018-07-28T08:20:02.847Z,54.85
2018-07-28T08:22:31.992Z,54.79
2018-07-28T08:25:01.366Z,54.32
2018-07-28T08:27:30.822Z,53.82
2018-07-28T08:29:59.995Z,54.81
2018-07-28T08:32:29.229Z,53.24
2018-07-28T08:34:58.333Z,53.69
2018-07-28T08:37:27.353Z,53.47
2018-07-28T08:39:56.197Z,53.12
2018-07-28T08:42:25.338Z,52.64
2018-07-28T08:44:54.457Z,52.79
2018-07-28T08:47:23.542Z,51.92
2018-07-28T08:49:52.586Z,52.00
2018-07-28T08:52:21.521Z,50.96
2018-07-28T08:54:50.735Z,52.16
2018-07-28T08:57:19.754Z,51.43
2018-07-28T08:59:48.995Z,51.97
2018-07-28T09:02:18.071Z,51.17
2018-07-28T09:04:47.319Z,51.22
2018-07-28T09:07:16.490Z,52.20
2018-07-28T09:09:45.526Z,50.57
2018-07-28T09:12:14.573Z,51.97
2018-07-28T09:14:43.579Z,51.74
2018-07-28T09:17:12.885Z,49.98
2018-07-28T09:19:42.152Z,48.76
2018-07-28T09:22:11.477Z,46.24
2018-07-28T09:24:40.683Z,44.35
2018-07-28T09:27:09.759Z,42.79
2018-07-28T09:29:38.991Z,39.58
2018-07-28T09:32:08.382Z,37.83
2018-07-28T09:34:37.549Z,35.48
2018-07-28T09:37:06.995Z,35.26
2018-07-28T09:39:36.240Z,33.69
2018-07-28T09:42:05.550Z,30.49
2018-07-28T09:44:34.739Z,30.01
2018-07-28T09:47:03.895Z,26.82
2018-07-28T09:49:33.089Z,28.12
2018-07-28T09:52:01.890Z,28.07
2018-07-28T09:54:31.003Z,27.89
2018-07-28T09:56:59.958Z,26.63
2018-07-28T09:59:29.633Z,24.52
2018-07-28T10:01:58.539Z,24.87
2018-07-28T10:04:27.659Z,22.34
2018-07-28T10:06:56.496Z,22.39
2018-07-28T10:09:25.790Z,22.11
2018-07-28T10:11:54.890Z,21.48
2018-07-28T10:14:23.895Z,19.87
2018-07-28T10:16:53.063Z,19.13
2018-07-28T10:19:22.164Z,17.94
2018-07-28T10:21:51.517Z,20.16
2018-07-28T10:24:20.506Z,21.83
2018-07-28T10:26:49.622Z,23.86
2018-07-28T10:29:18.625Z,24.49
2018-07-28T10:31:47.819Z,24.40
2018-07-28T10:34:16.931Z,22.78
2018-07-28T10:36:46.118Z,22.11
2018-07-28T10:39:15.429Z,21.18
2018-07-28T10:41:44.326Z,21.93
2018-07-28T10:44:14.416Z,22.93
2018-07-28T10:46:43.462Z,22.52
2018-07-28T10:49:12.505Z,24.46
2018-07-28T10:51:41.843Z,25.22
2018-07-28T10:54:10.755Z,24.25
2018-07-28T10:56:39.999Z,22.47
2018-07-28T10:59:09.331Z,22.86
2018-07-28T11:01:38.620Z,22.61
2018-07-28T11:04:07.714Z,20.88
2018-07-28T11:06:36.798Z,19.68
2018-07-28T11:09:08.169Z,18.05
2018-07-28T11:11:37.238Z,17.91
2018-07-28T11:14:06.640Z,16.39
2018-07-28T11:16:35.922Z,16.39
2018-07-28T11:19:05.056Z,15.16
2018-07-28T11:21:34.090Z,15.18
2018-07-28T11:24:03.747Z,15.44
2018-07-28T11:26:33.137Z,14.99
2018-07-28T11:29:02.235Z,14.29
2018-07-28T11:31:42.034Z,14.41
2018-07-28T11:34:21.629Z,15.06
2018-07-28T11:37:01.607Z,14.84
2018-07-28T11:39:41.551Z,14.87
2018-07-28T11:42:21.704Z,17.29
2018-07-28T11:45:06.162Z,19.38
2018-07-28T11:47:35.307Z,20.27
2018-07-28T11:50:04.613Z,20.10
2018-07-28T11:52:33.931Z,18.33
2018-07-28T11:55:03.102Z,19.45
2018-07-28T11:57:32.347Z,20.51
2018-07-28T12:00:01.600Z,22.91
2018-07-28T12:02:30.886Z,26.34
2018-07-28T12:05:00.029Z,26.79
2018-07-28T12:07:29.235Z,25.79
2018-07-28T12:09:58.363Z,26.58
2018-07-28T12:12:27.444Z,28.70
2018-07-28T12:14:56.517Z,30.30
2018-07-28T12:17:25.737Z,29.92
2018-07-28T12:19:54.528Z,29.54
2018-07-28T12:22:23.754Z,26.51
2018-07-28T12:24:53.015Z,27.26
2018-07-28T12:27:22.142Z,25.03
2018-07-28T12:29:51.256Z,27.07
2018-07-28T12:32:20.315Z,29.22
2018-07-28T12:34:49.629Z,30.38
2018-07-28T12:37:18.910Z,31.21
2018-07-28T12:39:48.147Z,30.77
2018-07-28T12:42:16.905Z,29.21
2018-07-28T12:44:46.185Z,29.42
2018-07-28T12:47:15.322Z,28.58
2018-07-28T12:49:44.539Z,26.34
2018-07-28T12:52:13.556Z,26.51
2018-07-28T12:54:42.852Z,27.70
2018-07-28T12:57:11.847Z,28.48
2018-07-28T12:59:40.880Z,30.75
2018-07-28T13:02:10.090Z,31.04
2018-07-28T13:04:38.918Z,32.89
2018-07-28T13:07:07.981Z,35.04
2018-07-28T13:09:37.178Z,35.05
2018-07-28T13:12:06.399Z,35.47
2018-07-28T13:14:35.347Z,34.71
2018-07-28T13:17:04.631Z,35.86
2018-07-28T13:19:33.570Z,36.62
2018-07-28T13:22:02.715Z,36.80
2018-07-28T13:24:31.907Z,37.01
2018-07-28T13:27:00.862Z,35.69
2018-07-28T13:29:29.871Z,37.21
2018-07-28T13:31:59.004Z,37.61
2018-07-28T13:34:28.022Z,38.77
2018-07-28T13:36:57.131Z,38.28
2018-07-28T13:39:26.371Z,36.26
2018-07-28T13:41:55.794Z,35.51
2018-07-28T13:44:24.987Z,36.88
2018-07-28T13:46:54.275Z,37.17
2018-07-28T13:49:23.367Z,36.16
2018-07-28T13:51:52.399Z,38.94
2018-07-28T13:54:21.594Z,39.93
2018-07-28T13:56:50.686Z,38.76
2018-07-28T13:59:19.647Z,38.82
2018-07-28T14:01:48.903Z,40.49
2018-07-28T14:04:18.122Z,41.53
2018-07-28T14:06:47.300Z,43.45
2018-07-28T14:09:16.184Z,41.71
2018-07-28T14:11:45.291Z,42.99
2018-07-28T14:14:14.367Z,42.83
2018-07-28T14:16:43.291Z,43.51
2018-07-28T14:19:12.406Z,44.43
2018-07-28T14:21:41.442Z,42.02
2018-07-28T14:24:10.249Z,44.77
2018-07-28T14:26:39.180Z,45.09
2018-07-28T14:29:08.264Z,43.81
2018-07-28T14:31:37.306Z,44.97
2018-07-28T14:34:06.813Z,44.08
2018-07-28T14:36:35.906Z,43.00
2018-07-28T14:39:06.734Z,42.33
2018-07-28T14:41:36.092Z,41.18
2018-07-28T14:44:05.234Z,39.46
2018-07-28T14:46:34.429Z,40.85
2018-07-28T14:49:03.422Z,40.27
2018-07-28T14:51:32.722Z,41.59
2018-07-28T14:54:02.006Z,39.91
2018-07-28T14:56:31.297Z,41.33
2018-07-28T14:59:00.578Z,41.60
2018-07-28T15:01:30.050Z,41.21
2018-07-28T15:03:59.255Z,39.74
2018-07-28T15:06:28.418Z,44.96
2018-07-28T15:08:57.520Z,47.47
2018-07-28T15:11:26.247Z,49.44
2018-07-28T15:13:55.541Z,49.79
2018-07-28T15:16:24.647Z,49.14
2018-07-28T15:18:53.990Z,49.31
2018-07-28T15:21:23.130Z,49.45
2018-07-28T15:23:51.996Z,51.69
2018-07-28T15:26:20.813Z,52.35
2018-07-28T15:28:51.685Z,51.81
2018-07-28T15:31:21.558Z,51.35
2018-07-28T15:33:50.773Z,51.60
2018-07-28T15:36:19.932Z,51.68
2018-07-28T15:38:49.160Z,51.74
2018-07-28T15:41:18.271Z,52.40
2018-07-28T15:43:47.330Z,52.59
2018-07-28T15:46:16.447Z,52.80
2018-07-28T15:48:45.410Z,51.75
2018-07-28T15:51:14.358Z,51.96
2018-07-28T15:53:43.647Z,51.79
2018-07-28T15:56:12.847Z,52.54
2018-07-28T15:58:41.606Z,50.64
2018-07-28T16:01:10.747Z,51.33
2018-07-28T16:03:40.396Z,50.73
2018-07-28T16:06:09.477Z,50.59
2018-07-28T16:08:38.442Z,51.27
2018-07-28T16:11:07.542Z,51.21
2018-07-28T16:13:36.434Z,50.49
2018-07-28T16:16:05.754Z,51.30
2018-07-28T16:18:34.816Z,50.89
2018-07-28T16:21:04.042Z,52.16
2018-07-28T16:23:32.848Z,51.56
2018-07-28T16:26:01.987Z,52.67
2018-07-28T16:28:30.928Z,52.84
2018-07-28T16:31:00.019Z,53.49
2018-07-28T16:33:29.007Z,53.15
2018-07-28T16:35:58.334Z,53.24
2018-07-28T16:38:27.094Z,53.62
2018-07-28T16:40:55.921Z,54.95
2018-07-28T16:43:24.842Z,56.21
2018-07-28T16:45:54.766Z,57.37
2018-07-28T16:48:24.398Z,57.56
2018-07-28T16:50:53.922Z,57.66
2018-07-28T16:53:23.095Z,56.69
2018-07-28T16:55:52.559Z,57.56
2018-07-28T16:58:22.260Z,57.62
2018-07-28T17:00:51.775Z,58.49
2018-07-28T17:03:20.793Z,58.69
2018-07-28T17:05:50.034Z,58.58
2018-07-28T17:08:19.153Z,57.99
2018-07-28T17:10:48.327Z,58.84
2018-07-28T17:13:17.440Z,59.59
2018-07-28T17:15:47.247Z,57.79
2018-07-28T17:18:16.239Z,58.76
2018-07-28T17:20:45.497Z,57.83
2018-07-28T17:23:14.488Z,57.38
2018-07-28T17:25:43.462Z,57.94
2018-07-28T17:28:12.706Z,58.56
2018-07-28T17:30:42.073Z,58.42
2018-07-28T17:33:11.047Z,59.77
2018-07-28T17:35:40.202Z,60.25
2018-07-28T17:38:09.547Z,60.70
2018-07-28T17:40:38.441Z,60.05
2018-07-28T17:43:07.439Z,60.39
2018-07-28T17:45:36.678Z,58.77
2018-07-28T17:48:05.971Z,59.92
2018-07-28T17:50:35.114Z,60.91
2018-07-28T17:53:04.467Z,60.25
2018-07-28T17:55:33.707Z,60.25
2018-07-28T17:58:02.990Z,60.35
2018-07-28T18:00:31.818Z,61.45
2018-07-28T18:03:01.154Z,61.67
2018-07-28T18:05:30.269Z,61.62
2018-07-28T18:07:59.439Z,62.26
2018-07-28T18:10:28.562Z,60.89
2018-07-28T18:12:57.630Z,61.35
2018-07-28T18:15:26.420Z,62.12
2018-07-28T18:17:55.447Z,61.48
2018-07-28T18:20:24.559Z,62.14
2018-07-28T18:22:53.645Z,61.67
2018-07-28T18:25:23.180Z,61.27
2018-07-28T18:27:52.350Z,61.20
2018-07-28T18:30:21.603Z,62.82
2018-07-28T18:32:50.751Z,62.64
2018-07-28T18:35:19.994Z,62.29
2018-07-28T18:37:48.927Z,62.03
2018-07-28T18:40:17.884Z,61.68
2018-07-28T18:42:47.008Z,62.56
2018-07-28T18:45:16.200Z,63.53
2018-07-28T18:47:45.184Z,62.71
2018-07-28T18:50:14.258Z,63.72
2018-07-28T18:52:43.109Z,63.38
2018-07-28T18:55:12.300Z,62.35
2018-07-28T18:57:41.530Z,63.11
2018-07-28T19:00:10.800Z,63.97
2018-07-28T19:02:40.042Z,63.45
2018-07-28T19:05:09.386Z,63.93
2018-07-28T19:07:38.159Z,63.71
2018-07-28T19:10:07.079Z,64.11
2018-07-28T19:12:40.930Z,65.38
2018-07-28T19:15:10.086Z,66.77
2018-07-28T19:17:44.374Z,67.46
2018-07-28T19:20:13.598Z,67.24
2018-07-28T19:22:47.929Z,67.37
2018-07-28T19:25:17.230Z,67.78
2018-07-28T19:27:51.535Z,67.12
2018-07-28T19:30:20.998Z,67.19
2018-07-28T19:32:50.029Z,66.83
2018-07-28T19:35:18.940Z,67.08
2018-07-28T19:37:48.082Z,67.00
2018-07-28T19:40:17.227Z,66.07
2018-07-28T19:42:51.827Z,64.58
2018-07-28T19:45:21.403Z,63.77
2018-07-28T19:47:50.598Z,64.06
2018-07-28T19:50:19.840Z,64.67
2018-07-28T19:52:50.067Z,64.32
2018-07-28T19:55:19.275Z,65.09
2018-07-28T19:57:48.070Z,64.70
2018-07-28T20:00:17.109Z,65.09
2018-07-28T20:02:46.296Z,64.94
2018-07-28T20:05:15.614Z,64.91
2018-07-28T20:07:44.793Z,63.54
2018-07-28T20:10:13.961Z,62.74
2018-07-28T20:12:43.187Z,63.22
2018-07-28T20:15:12.113Z,63.76
2018-07-28T20:17:41.388Z,66.86
2018-07-28T20:20:12.590Z,69.54
2018-07-28T20:22:41.503Z,72.62
2018-07-28T20:25:10.648Z,73.55
2018-07-28T20:27:39.826Z,77.51
2018-07-28T20:30:09.145Z,79.30
2018-07-28T20:32:38.322Z,80.61
2018-07-28T20:35:07.219Z,82.86
2018-07-28T20:37:36.551Z,83.99
2018-07-28T20:40:05.607Z,84.70
2018-07-28T20:42:34.766Z,85.41
2018-07-28T20:45:04.103Z,85.40
2018-07-28T20:47:33.245Z,85.86
2018-07-28T20:50:01.940Z,85.58
2018-07-28T20:52:30.897Z,85.60
2018-07-28T20:55:00.036Z,85.04
2018-07-28T20:57:28.919Z,86.16
2018-07-28T20:59:57.826Z,85.41
2018-07-28T21:02:26.922Z,85.28
2018-07-28T21:04:55.993Z,84.49
2018-07-28T21:07:24.986Z,83.77
2018-07-28T21:09:54.224Z,84.58
2018-07-28T21:12:23.372Z,84.07
2018-07-28T21:14:52.543Z,84.57
2018-07-28T21:17:21.678Z,85.92
2018-07-28T21:19:50.874Z,85.76
2018-07-28T21:22:20.129Z,85.14
2018-07-28T21:24:48.990Z,85.17
2018-07-28T21:27:17.958Z,85.04
2018-07-28T21:29:46.929Z,84.33
2018-07-28T21:32:16.141Z,84.52
2018-07-28T21:34:45.031Z,85.44
2018-07-28T21:37:14.242Z,85.24
2018-07-28T21:39:42.973Z,86.04
2018-07-28T21:42:11.791Z,86.19
2018-07-28T21:44:40.816Z,85.49
2018-07-28T21:47:09.994Z,86.26
2018-07-28T21:49:39.127Z,86.58
2018-07-28T21:52:08.389Z,86.98
2018-07-28T21:54:37.615Z,86.17
2018-07-28T21:57:06.877Z,84.57
2018-07-28T21:59:36.244Z,84.71
2018-07-28T22:02:05.299Z,84.11
2018-07-28T22:04:36.522Z,86.15
2018-07-28T22:07:05.556Z,86.51
2018-07-28T22:09:34.731Z,87.27
2018-07-28T22:12:03.939Z,88.59
2018-07-28T22:14:32.923Z,89.66
2018-07-28T22:17:02.178Z,89.24
2018-07-28T22:19:31.534Z,90.22
2018-07-28T22:22:00.425Z,90.63
2018-07-28T22:24:30.925Z,90.44
2018-07-28T22:27:00.193Z,91.00
2018-07-28T22:29:29.116Z,90.91
2018-07-28T22:31:58.387Z,90.96
2018-07-28T22:34:27.465Z,91.15
2018-07-28T22:36:56.546Z,91.40
2018-07-28T22:39:25.570Z,90.61
2018-07-28T22:41:54.462Z,91.09
2018-07-28T22:44:23.811Z,91.14
2018-07-28T22:46:52.784Z,90.83
2018-07-28T22:49:21.902Z,90.94
2018-07-28T22:51:50.968Z,91.30
2018-07-28T22:54:20.274Z,90.57
2018-07-28T22:56:49.535Z,90.32
2018-07-28T22:59:18.847Z,89.14
2018-07-28T23:01:48.072Z,89.37
2018-07-28T23:04:16.962Z,89.78
2018-07-28T23:06:46.158Z,89.50
2018-07-28T23:09:15.285Z,90.87
2018-07-28T23:11:44.427Z,91.27
2018-07-28T23:14:13.731Z,90.45
2018-07-28T23:16:43.234Z,89.83
2018-07-28T23:19:12.119Z,89.14
2018-07-28T23:21:41.416Z,89.46
2018-07-28T23:24:10.442Z,89.23
2018-07-28T23:26:39.780Z,88.55
2018-07-28T23:29:09.018Z,88.40
2018-07-28T23:31:38.011Z,88.43
2018-07-28T23:34:07.075Z,89.20
2018-07-28T23:36:36.364Z,89.21
2018-07-28T23:39:07.720Z,89.15
2018-07-28T23:41:36.793Z,89.76
2018-07-28T23:44:05.558Z,89.72
2018-07-28T23:46:34.591Z,90.34
2018-07-28T23:49:03.534Z,90.26
2018-07-28T23:51:32.776Z,89.17
2018-07-28T23:54:01.727Z,89.13
2018-07-28T23:56:30.759Z,89.21
2018-07-28T23:58:59.656Z,89.87
